Gabriella — OJHP — position and weather

sailwx.info

Track history (hours):
 
Tides and Currents Weather Stations Pressure Air Temp Water Temp Dewpoint Dewpoint Depression Visibility Wind Speed Wind Dir Waves Ship Positions

Gabriella

Last reported at 2014-Jul-30 03:20 UTC. Time now 2014-Jul-30 07:11 UTC.
Position N 59°47' E 019°20'.

Length 172 m; draft 6.5 m.

Type: Ship (hazmat cat A). MMSI: 230361000.

Date/timePositionNaut miles runAvg speedWind from/ knotsBaromVisibWave heightAir tempDewpointWater temp
2014-Jul-30 03:20N 59°47' E 019°20'1114.0
2014-Jul-30 02:33N 59°54' E 019°35'11 5.6
2014-Jul-30 00:33N 59°55' E 019°57'3918.8
2014-Jul-29 22:28N 59°37' E 021°07'2619.0
2014-Jul-29 21:08N 59°33' E 021°57'1119.2
2014-Jul-29 20:33N 59°34' E 022°18'1919.3
2014-Jul-29 19:33N 59°38' E 022°55'1919.3
2014-Jul-29 18:33N 59°42' E 023°33'1919.3
2014-Jul-29 17:33N 59°48' E 024°10'2319.3
2014-Jul-29 16:21N 59°58' E 024°51'1214.5
2014-Jul-29 15:31N 60°10' E 024°58'0 0.1
2014-Jul-29 14:32N 60°10' E 024°58'9 9.0
2014-Jul-29 13:33N 60°01' E 024°57'2521.5
2014-Jul-29 12:23N 59°37' E 024°41'5 2.2
2014-Jul-29 10:06N 59°32' E 024°43'1119.3
2014-Jul-29 09:33N 59°43' E 024°46'2121.0
2014-Jul-29 08:33N 60°03' E 024°58'7 6.7
2014-Jul-29 07:32N 60°10' E 024°58'1 1.5
2014-Jul-29 06:33N 60°09' E 025°00'1515.3
2014-Jul-29 05:33N 60°01' E 024°34'1514.8
2014-Jul-29 04:33N 59°53' E 024°09'1919.1
2014-Jul-29 03:33N 59°44' E 023°35'2019.2
2014-Jul-29 02:32N 59°39' E 022°57'2119.1
2014-Jul-29 01:26N 59°35' E 022°16'1719.1
2014-Jul-29 00:31N 59°32' E 021°43'1819.2
2014-Jul-28 23:33N 59°36' E 021°07'8211.3
2014-Jul-28 16:17N 59°27' E 018°26'7 6.4
2014-Jul-28 15:10N 59°22' E 018°17'610.1
2014-Jul-28 14:33N 59°19' E 018°06'0 0.0
2014-Jul-28 13:26N 59°19' E 018°06'0 0.0
2014-Jul-28 12:05N 59°19' E 018°06'0 0.0
2014-Jul-28 11:32N 59°19' E 018°06'0 0.0
2014-Jul-28 10:29N 59°19' E 018°06'0 0.0
2014-Jul-28 09:32N 59°19' E 018°06'0 0.0
2014-Jul-28 08:26N 59°19' E 018°06'2 2.3
2014-Jul-28 07:33N 59°19' E 018°10'4410.5
2014-Jul-28 03:24N 59°46' E 019°18'5511.2
2014-Jul-27 22:30N 59°38' E 021°05'1919.6
2014-Jul-27 21:33N 59°33' E 021°40'2619.2
2014-Jul-27 20:11N 59°36' E 022°32'1419.2
2014-Jul-27 19:27N 59°38' E 022°59'1719.3
2014-Jul-27 18:33N 59°43' E 023°32'1919.2
2014-Jul-27 17:33N 59°52' E 024°06'1515.2
2014-Jul-27 16:33N 59°59' E 024°32'1615.6
2014-Jul-27 15:34N 60°08' E 024°59'2 2.4
2014-Jul-27 14:32N 60°10' E 024°58'4 3.7
2014-Jul-27 13:33N 60°06' E 024°59'2020.2
2014-Jul-27 12:33N 59°47' E 024°49'1919.4
2014-Jul-27 11:33N 59°27' E 024°47'0 0.1
2014-Jul-27 10:20N 59°27' E 024°47'1519.2
2014-Jul-27 09:33N 59°42' E 024°45'2121.3
2014-Jul-27 08:34N 60°02' E 024°58'7 7.1
2014-Jul-27 07:31N 60°10' E 024°58'2 1.7
2014-Jul-27 06:33N 60°08' E 024°60'1515.4
2014-Jul-27 05:33N 60°00' E 024°34'1414.3
2014-Jul-27 04:34N 59°53' E 024°09'1918.9
2014-Jul-27 03:33N 59°44' E 023°35'1919.1
2014-Jul-27 02:34N 59°40' E 022°59'1919.2
2014-Jul-27 01:33N 59°36' E 022°22'1919.2
2014-Jul-27 00:33N 59°32' E 021°44'1919.2
2014-Jul-26 23:33N 59°36' E 021°07'1918.9
2014-Jul-26 22:33N 59°41' E 020°31'30 9.8
2014-Jul-26 19:30N 59°54' E 019°38'1515.7
2014-Jul-26 18:33N 59°45' E 019°15'3112.2
2014-Jul-26 16:03N 59°27' E 018°26'6 9.6
2014-Jul-26 15:28N 59°22' E 018°27'1010.8
2014-Jul-26 14:33N 59°19' E 018°08'1 1.0
2014-Jul-26 13:31N 59°19' E 018°06'0 0.0
2014-Jul-26 12:31N 59°19' E 018°06'0 0.0
2014-Jul-26 11:28N 59°19' E 018°06'0 0.0
2014-Jul-26 10:31N 59°19' E 018°06'0 0.0
2014-Jul-26 09:31N 59°19' E 018°06'0 0.0
2014-Jul-26 08:31N 59°19' E 018°06'2 2.1
2014-Jul-26 07:33N 59°19' E 018°10'5611.2
2014-Jul-26 02:33N 59°54' E 019°36'11 5.5
2014-Jul-26 00:33N 59°55' E 019°57'2018.3
2014-Jul-25 23:29N 59°43' E 020°29'1919.1
2014-Jul-25 22:31N 59°38' E 021°04'1819.3
2014-Jul-25 21:33N 59°33' E 021°39'1919.0
2014-Jul-25 20:34N 59°34' E 022°17'3819.1
2014-Jul-25 18:33N 59°42' E 023°30'2119.1
2014-Jul-25 17:26N 59°49' E 024°11'1719.1
2014-Jul-25 16:33N 59°56' E 024°42'1616.0
2014-Jul-25 15:32N 60°10' E 024°59'1 0.5
2014-Jul-25 14:32N 60°10' E 024°58'8 7.7
2014-Jul-25 13:33N 60°02' E 024°58'2121.1
2014-Jul-25 12:33N 59°42' E 024°46'14 7.1
2014-Jul-25 10:33N 59°28' E 024°47'2019.6
2014-Jul-25 09:34N 59°48' E 024°49'2120.6
2014-Jul-25 08:33N 60°08' E 024°59'2 2.1
2014-Jul-25 07:26N 60°10' E 024°58'2 2.4
2014-Jul-25 06:34N 60°08' E 024°59'1616.2
2014-Jul-25 05:34N 59°55' E 024°40'1918.8
2014-Jul-25 04:33N 59°47' E 024°06'1918.8
2014-Jul-25 03:33N 59°43' E 023°30'1918.8
2014-Jul-25 02:33N 59°39' E 022°54'1918.7
2014-Jul-25 01:33N 59°35' E 022°17'1918.6
2014-Jul-25 00:34N 59°32' E 021°41'1918.8
2014-Jul-24 23:34N 59°36' E 021°05'1818.4
2014-Jul-24 22:34N 59°42' E 020°30'1918.7
2014-Jul-24 21:34N 59°53' E 019°59'1310.9
2014-Jul-24 20:24N 60°05' E 019°56'6612.5
2014-Jul-24 15:08N 59°22' E 018°17'610.9
2014-Jul-24 14:33N 59°19' E 018°06'0 0.2
2014-Jul-24 13:31N 59°19' E 018°06'0 0.0
2014-Jul-24 12:28N 59°19' E 018°06'0 0.0
2014-Jul-24 11:31N 59°19' E 018°06'0 0.0
2014-Jul-24 10:31N 59°19' E 018°06'0 0.0
2014-Jul-24 09:31N 59°19' E 018°06'0 0.0
2014-Jul-24 08:28N 59°19' E 018°06'2 2.1
2014-Jul-24 07:33N 59°19' E 018°10'9010.0
2014-Jul-23 22:33N 59°38' E 021°03'1918.8
2014-Jul-23 21:33N 59°34' E 021°39'4518.5
2014-Jul-23 19:06N 59°40' E 023°07'1018.8
2014-Jul-23 18:33N 59°42' E 023°28'1918.8
2014-Jul-23 17:33N 59°47' E 024°04'2318.8
2014-Jul-23 16:18N 59°57' E 024°46'1317.3
2014-Jul-23 15:33N 60°08' E 024°59'2 2.0
2014-Jul-23 14:32N 60°10' E 024°58'3 3.1
2014-Jul-23 13:34N 60°07' E 024°59'4 0.9
2014-Jul-23 08:31N 60°03' E 024°58'6 3.0
2014-Jul-23 06:33N 60°08' E 024°60'1716.7
2014-Jul-23 05:31N 59°55' E 024°39'1818.8
2014-Jul-23 04:33N 59°47' E 024°06'1918.9
2014-Jul-23 03:34N 59°43' E 023°30'1918.9
2014-Jul-23 02:34N 59°39' E 022°53'1918.8
2014-Jul-23 01:34N 59°34' E 022°17'1918.5
2014-Jul-23 00:33N 59°32' E 021°41'1918.8
2014-Jul-22 23:33N 59°36' E 021°05'1818.5
2014-Jul-22 22:34N 59°42' E 020°30'1918.8
2014-Jul-22 21:33N 59°53' E 019°59'60 9.3
2014-Jul-22 15:06N 59°22' E 018°17'610.9
2014-Jul-22 14:33N 59°19' E 018°07'1 0.7
2014-Jul-22 13:33N 59°19' E 018°06'0 0.0
2014-Jul-22 12:30N 59°19' E 018°06'0 0.0
2014-Jul-22 11:33N 59°19' E 018°06'0 0.0
2014-Jul-22 10:33N 59°19' E 018°06'0 0.0
2014-Jul-22 09:33N 59°19' E 018°06'0 0.0
2014-Jul-22 08:33N 59°19' E 018°06'3 2.5
2014-Jul-22 07:34N 59°20' E 018°11'12511.4
2014-Jul-21 20:34N 59°34' E 022°15'2418.9
2014-Jul-21 19:16N 59°38' E 023°02'1418.9
2014-Jul-21 18:33N 59°41' E 023°29'2019.0
2014-Jul-21 17:31N 59°47' E 024°06'2219.2
2014-Jul-21 16:22N 59°57' E 024°46'1417.0
2014-Jul-21 15:34N 60°08' E 024°60'2 1.7
2014-Jul-21 14:33N 60°10' E 024°58'3 3.0
2014-Jul-21 13:33N 60°07' E 024°59'2120.7
2014-Jul-21 12:33N 59°47' E 024°49'20 9.0
2014-Jul-21 10:22N 59°27' E 024°47'2218.9
2014-Jul-21 09:11N 59°49' E 024°52'1421.0
2014-Jul-21 08:32N 60°03' E 024°57'7 6.6
2014-Jul-21 07:28N 60°10' E 024°58'2 1.9
2014-Jul-21 06:33N 60°08' E 024°60'1716.5
2014-Jul-21 05:31N 59°55' E 024°39'1818.7
2014-Jul-21 04:33N 59°48' E 024°06'1918.8
2014-Jul-21 03:33N 59°43' E 023°30'1919.1
2014-Jul-21 02:33N 59°39' E 022°53'1919.1
2014-Jul-21 01:33N 59°34' E 022°16'1918.6
2014-Jul-21 00:34N 59°32' E 021°40'1918.9
2014-Jul-20 23:33N 59°36' E 021°03'1818.4
2014-Jul-20 22:34N 59°42' E 020°29'1918.7
2014-Jul-20 21:34N 59°53' E 019°59'66 9.4
2014-Jul-20 14:32N 59°19' E 018°07'1 0.7
2014-Jul-20 13:29N 59°19' E 018°06'0 0.0
2014-Jul-20 12:32N 59°19' E 018°06'0 0.0
2014-Jul-20 11:32N 59°19' E 018°06'0 0.0
2014-Jul-20 10:32N 59°19' E 018°06'0 0.0
2014-Jul-20 09:32N 59°19' E 018°06'0 0.0
2014-Jul-20 08:32N 59°19' E 018°06'  
Track history (hours):
 
Tides and Currents Weather Stations Pressure Air Temp Water Temp Dewpoint Dewpoint Depression Visibility Wind Speed Wind Dir Waves Ship Positions

Gabriella

Last reported at 2014-Jul-30 03:20 UTC. Time now 2014-Jul-30 07:11 UTC.
Position N 59°47' E 019°20'.

Length 172 m; draft 6.5 m.

Type: Ship (hazmat cat A). MMSI: 230361000.

Date/timePositionNaut miles runAvg speedWind from/ knotsBaromVisibWave heightAir tempDewpointWater temp
2014-Jul-30 03:20N 59°47' E 019°20'1114.0
2014-Jul-30 02:33N 59°54' E 019°35'11 5.6
2014-Jul-30 00:33N 59°55' E 019°57'3918.8
2014-Jul-29 22:28N 59°37' E 021°07'2619.0
2014-Jul-29 21:08N 59°33' E 021°57'1119.2
2014-Jul-29 20:33N 59°34' E 022°18'1919.3
2014-Jul-29 19:33N 59°38' E 022°55'1919.3
2014-Jul-29 18:33N 59°42' E 023°33'1919.3
2014-Jul-29 17:33N 59°48' E 024°10'2319.3
2014-Jul-29 16:21N 59°58' E 024°51'1214.5
2014-Jul-29 15:31N 60°10' E 024°58'0 0.1
2014-Jul-29 14:32N 60°10' E 024°58'9 9.0
2014-Jul-29 13:33N 60°01' E 024°57'2521.5
2014-Jul-29 12:23N 59°37' E 024°41'5 2.2
2014-Jul-29 10:06N 59°32' E 024°43'1119.3
2014-Jul-29 09:33N 59°43' E 024°46'2121.0
2014-Jul-29 08:33N 60°03' E 024°58'7 6.7
2014-Jul-29 07:32N 60°10' E 024°58'1 1.5
2014-Jul-29 06:33N 60°09' E 025°00'1515.3
2014-Jul-29 05:33N 60°01' E 024°34'1514.8
2014-Jul-29 04:33N 59°53' E 024°09'1919.1
2014-Jul-29 03:33N 59°44' E 023°35'2019.2
2014-Jul-29 02:32N 59°39' E 022°57'2119.1
2014-Jul-29 01:26N 59°35' E 022°16'1719.1
2014-Jul-29 00:31N 59°32' E 021°43'1819.2
2014-Jul-28 23:33N 59°36' E 021°07'8211.3
2014-Jul-28 16:17N 59°27' E 018°26'7 6.4
2014-Jul-28 15:10N 59°22' E 018°17'610.1
2014-Jul-28 14:33N 59°19' E 018°06'0 0.0
2014-Jul-28 13:26N 59°19' E 018°06'0 0.0
2014-Jul-28 12:05N 59°19' E 018°06'0 0.0
2014-Jul-28 11:32N 59°19' E 018°06'0 0.0
2014-Jul-28 10:29N 59°19' E 018°06'0 0.0
2014-Jul-28 09:32N 59°19' E 018°06'0 0.0
2014-Jul-28 08:26N 59°19' E 018°06'2 2.3
2014-Jul-28 07:33N 59°19' E 018°10'4410.5
2014-Jul-28 03:24N 59°46' E 019°18'5511.2
2014-Jul-27 22:30N 59°38' E 021°05'1919.6
2014-Jul-27 21:33N 59°33' E 021°40'2619.2
2014-Jul-27 20:11N 59°36' E 022°32'1419.2
2014-Jul-27 19:27N 59°38' E 022°59'1719.3
2014-Jul-27 18:33N 59°43' E 023°32'1919.2
2014-Jul-27 17:33N 59°52' E 024°06'1515.2
2014-Jul-27 16:33N 59°59' E 024°32'1615.6
2014-Jul-27 15:34N 60°08' E 024°59'2 2.4
2014-Jul-27 14:32N 60°10' E 024°58'4 3.7
2014-Jul-27 13:33N 60°06' E 024°59'2020.2
2014-Jul-27 12:33N 59°47' E 024°49'1919.4
2014-Jul-27 11:33N 59°27' E 024°47'0 0.1
2014-Jul-27 10:20N 59°27' E 024°47'1519.2
2014-Jul-27 09:33N 59°42' E 024°45'2121.3
2014-Jul-27 08:34N 60°02' E 024°58'7 7.1
2014-Jul-27 07:31N 60°10' E 024°58'2 1.7
2014-Jul-27 06:33N 60°08' E 024°60'1515.4
2014-Jul-27 05:33N 60°00' E 024°34'1414.3
2014-Jul-27 04:34N 59°53' E 024°09'1918.9
2014-Jul-27 03:33N 59°44' E 023°35'1919.1
2014-Jul-27 02:34N 59°40' E 022°59'1919.2
2014-Jul-27 01:33N 59°36' E 022°22'1919.2
2014-Jul-27 00:33N 59°32' E 021°44'1919.2
2014-Jul-26 23:33N 59°36' E 021°07'1918.9
2014-Jul-26 22:33N 59°41' E 020°31'30 9.8
2014-Jul-26 19:30N 59°54' E 019°38'1515.7
2014-Jul-26 18:33N 59°45' E 019°15'3112.2
2014-Jul-26 16:03N 59°27' E 018°26'6 9.6
2014-Jul-26 15:28N 59°22' E 018°27'1010.8
2014-Jul-26 14:33N 59°19' E 018°08'1 1.0
2014-Jul-26 13:31N 59°19' E 018°06'0 0.0
2014-Jul-26 12:31N 59°19' E 018°06'0 0.0
2014-Jul-26 11:28N 59°19' E 018°06'0 0.0
2014-Jul-26 10:31N 59°19' E 018°06'0 0.0
2014-Jul-26 09:31N 59°19' E 018°06'0 0.0
2014-Jul-26 08:31N 59°19' E 018°06'2 2.1
2014-Jul-26 07:33N 59°19' E 018°10'5611.2
2014-Jul-26 02:33N 59°54' E 019°36'11 5.5
2014-Jul-26 00:33N 59°55' E 019°57'2018.3
2014-Jul-25 23:29N 59°43' E 020°29'1919.1
2014-Jul-25 22:31N 59°38' E 021°04'1819.3
2014-Jul-25 21:33N 59°33' E 021°39'1919.0
2014-Jul-25 20:34N 59°34' E 022°17'3819.1
2014-Jul-25 18:33N 59°42' E 023°30'2119.1
2014-Jul-25 17:26N 59°49' E 024°11'1719.1
2014-Jul-25 16:33N 59°56' E 024°42'1616.0
2014-Jul-25 15:32N 60°10' E 024°59'1 0.5
2014-Jul-25 14:32N 60°10' E 024°58'8 7.7
2014-Jul-25 13:33N 60°02' E 024°58'2121.1
2014-Jul-25 12:33N 59°42' E 024°46'14 7.1
2014-Jul-25 10:33N 59°28' E 024°47'2019.6
2014-Jul-25 09:34N 59°48' E 024°49'2120.6
2014-Jul-25 08:33N 60°08' E 024°59'2 2.1
2014-Jul-25 07:26N 60°10' E 024°58'2 2.4
2014-Jul-25 06:34N 60°08' E 024°59'1616.2
2014-Jul-25 05:34N 59°55' E 024°40'1918.8
2014-Jul-25 04:33N 59°47' E 024°06'1918.8
2014-Jul-25 03:33N 59°43' E 023°30'1918.8
2014-Jul-25 02:33N 59°39' E 022°54'1918.7
2014-Jul-25 01:33N 59°35' E 022°17'1918.6
2014-Jul-25 00:34N 59°32' E 021°41'1918.8
2014-Jul-24 23:34N 59°36' E 021°05'1818.4
2014-Jul-24 22:34N 59°42' E 020°30'1918.7
2014-Jul-24 21:34N 59°53' E 019°59'1310.9
2014-Jul-24 20:24N 60°05' E 019°56'6612.5
2014-Jul-24 15:08N 59°22' E 018°17'610.9
2014-Jul-24 14:33N 59°19' E 018°06'0 0.2
2014-Jul-24 13:31N 59°19' E 018°06'0 0.0
2014-Jul-24 12:28N 59°19' E 018°06'0 0.0
2014-Jul-24 11:31N 59°19' E 018°06'0 0.0
2014-Jul-24 10:31N 59°19' E 018°06'0 0.0
2014-Jul-24 09:31N 59°19' E 018°06'0 0.0
2014-Jul-24 08:28N 59°19' E 018°06'2 2.1
2014-Jul-24 07:33N 59°19' E 018°10'9010.0
2014-Jul-23 22:33N 59°38' E 021°03'1918.8
2014-Jul-23 21:33N 59°34' E 021°39'4518.5
2014-Jul-23 19:06N 59°40' E 023°07'1018.8
2014-Jul-23 18:33N 59°42' E 023°28'1918.8
2014-Jul-23 17:33N 59°47' E 024°04'2318.8
2014-Jul-23 16:18N 59°57' E 024°46'1317.3
2014-Jul-23 15:33N 60°08' E 024°59'2 2.0
2014-Jul-23 14:32N 60°10' E 024°58'3 3.1
2014-Jul-23 13:34N 60°07' E 024°59'4 0.9
2014-Jul-23 08:31N 60°03' E 024°58'6 3.0
2014-Jul-23 06:33N 60°08' E 024°60'1716.7
2014-Jul-23 05:31N 59°55' E 024°39'1818.8
2014-Jul-23 04:33N 59°47' E 024°06'1918.9
2014-Jul-23 03:34N 59°43' E 023°30'1918.9
2014-Jul-23 02:34N 59°39' E 022°53'1918.8
2014-Jul-23 01:34N 59°34' E 022°17'1918.5
2014-Jul-23 00:33N 59°32' E 021°41'1918.8
2014-Jul-22 23:33N 59°36' E 021°05'1818.5
2014-Jul-22 22:34N 59°42' E 020°30'1918.8
2014-Jul-22 21:33N 59°53' E 019°59'60 9.3
2014-Jul-22 15:06N 59°22' E 018°17'610.9
2014-Jul-22 14:33N 59°19' E 018°07'1 0.7
2014-Jul-22 13:33N 59°19' E 018°06'0 0.0
2014-Jul-22 12:30N 59°19' E 018°06'0 0.0
2014-Jul-22 11:33N 59°19' E 018°06'0 0.0
2014-Jul-22 10:33N 59°19' E 018°06'0 0.0
2014-Jul-22 09:33N 59°19' E 018°06'0 0.0
2014-Jul-22 08:33N 59°19' E 018°06'3 2.5
2014-Jul-22 07:34N 59°20' E 018°11'12511.4
2014-Jul-21 20:34N 59°34' E 022°15'2418.9
2014-Jul-21 19:16N 59°38' E 023°02'1418.9
2014-Jul-21 18:33N 59°41' E 023°29'2019.0
2014-Jul-21 17:31N 59°47' E 024°06'2219.2
2014-Jul-21 16:22N 59°57' E 024°46'1417.0
2014-Jul-21 15:34N 60°08' E 024°60'2 1.7
2014-Jul-21 14:33N 60°10' E 024°58'3 3.0
2014-Jul-21 13:33N 60°07' E 024°59'2120.7
2014-Jul-21 12:33N 59°47' E 024°49'20 9.0
2014-Jul-21 10:22N 59°27' E 024°47'2218.9
2014-Jul-21 09:11N 59°49' E 024°52'1421.0
2014-Jul-21 08:32N 60°03' E 024°57'7 6.6
2014-Jul-21 07:28N 60°10' E 024°58'2 1.9
2014-Jul-21 06:33N 60°08' E 024°60'1716.5
2014-Jul-21 05:31N 59°55' E 024°39'1818.7
2014-Jul-21 04:33N 59°48' E 024°06'1918.8
2014-Jul-21 03:33N 59°43' E 023°30'1919.1
2014-Jul-21 02:33N 59°39' E 022°53'1919.1
2014-Jul-21 01:33N 59°34' E 022°16'1918.6
2014-Jul-21 00:34N 59°32' E 021°40'1918.9
2014-Jul-20 23:33N 59°36' E 021°03'1818.4
2014-Jul-20 22:34N 59°42' E 020°29'1918.7
2014-Jul-20 21:34N 59°53' E 019°59'66 9.4
2014-Jul-20 14:32N 59°19' E 018°07'1 0.7
2014-Jul-20 13:29N 59°19' E 018°06'0 0.0
2014-Jul-20 12:32N 59°19' E 018°06'0 0.0
2014-Jul-20 11:32N 59°19' E 018°06'0 0.0
2014-Jul-20 10:32N 59°19' E 018°06'0 0.0
2014-Jul-20 09:32N 59°19' E 018°06'0 0.0
2014-Jul-20 08:32N 59°19' E 018°06'  

Dump ship's entire track history